createdAt,value
2022-09-30T00:01:03.894Z,99917.34
2022-09-30T00:03:31.562Z,99920.63
2022-09-30T00:05:59.241Z,99923.19
2022-09-30T00:08:26.813Z,99927.66
2022-09-30T00:11:01.777Z,99924.13
2022-09-30T00:13:29.248Z,99919.41
2022-09-30T00:15:56.760Z,99925.66
2022-09-30T00:18:25.589Z,99923.69
2022-09-30T00:20:54.061Z,99924.00
2022-09-30T00:23:21.760Z,99930.06
2022-09-30T00:25:49.294Z,99935.16
2022-09-30T00:28:16.774Z,99928.53
2022-09-30T00:30:44.244Z,99927.66
2022-09-30T00:33:11.691Z,99921.94
2022-09-30T00:35:40.571Z,99925.63
2022-09-30T00:38:08.069Z,99928.44
2022-09-30T00:40:35.580Z,99928.13
2022-09-30T00:43:03.047Z,99935.88
2022-09-30T00:45:31.529Z,99934.50
2022-09-30T00:48:04.856Z,99934.09
2022-09-30T00:50:36.722Z,99936.91
2022-09-30T00:53:11.382Z,99941.50
2022-09-30T00:55:52.751Z,99950.41
2022-09-30T00:58:26.284Z,99942.88
2022-09-30T01:00:53.820Z,99946.81
2022-09-30T01:03:23.125Z,99941.53
2022-09-30T01:05:52.028Z,99946.84
2022-09-30T01:08:21.986Z,99944.19
2022-09-30T01:10:49.437Z,99948.19
2022-09-30T01:13:19.143Z,99946.06
2022-09-30T01:15:59.809Z,99945.06
2022-09-30T01:18:31.905Z,99947.53
2022-09-30T01:21:50.273Z,99942.25
2022-09-30T01:24:30.547Z,99949.19
2022-09-30T01:27:20.534Z,99952.00
2022-09-30T01:30:10.787Z,99953.34
2022-09-30T01:33:00.876Z,99953.50
2022-09-30T01:35:37.547Z,99951.88
2022-09-30T01:38:13.240Z,99951.53
2022-09-30T01:40:44.819Z,99965.38
2022-09-30T01:43:14.931Z,99962.91
2022-09-30T01:45:44.433Z,99964.91
2022-09-30T01:48:19.780Z,99959.44
2022-09-30T01:50:50.769Z,99962.94
2022-09-30T01:53:24.764Z,99963.41
2022-09-30T01:55:54.962Z,99963.41
2022-09-30T01:58:28.795Z,99956.00
2022-09-30T02:00:59.459Z,99956.47
2022-09-30T02:03:31.142Z,99960.13
2022-09-30T02:06:03.216Z,99961.59
2022-09-30T02:08:34.341Z,99961.78
2022-09-30T02:11:06.066Z,99959.97
2022-09-30T02:13:35.908Z,99970.16
2022-09-30T02:16:12.716Z,99971.84
2022-09-30T02:18:44.740Z,99971.00
2022-09-30T02:21:13.595Z,99970.34
2022-09-30T02:23:43.775Z,99974.31
2022-09-30T02:26:14.517Z,99970.34
2022-09-30T02:28:43.476Z,99979.56
2022-09-30T02:31:12.799Z,99977.59
2022-09-30T02:33:44.986Z,99974.78
2022-09-30T02:36:17.408Z,99979.03
2022-09-30T02:38:46.274Z,99967.00
2022-09-30T02:41:16.368Z,99976.06
2022-09-30T02:43:43.935Z,99974.94
2022-09-30T02:46:16.234Z,99979.06
2022-09-30T02:48:48.568Z,99984.63
2022-09-30T02:51:19.219Z,99985.09
2022-09-30T02:53:52.560Z,99987.78
2022-09-30T02:56:25.834Z,99995.72
2022-09-30T02:58:53.973Z,99994.16
2022-09-30T03:01:21.561Z,100002.38
2022-09-30T03:03:51.746Z,100000.59
2022-09-30T03:06:19.473Z,100012.00
2022-09-30T03:08:47.189Z,100018.97
2022-09-30T03:11:16.621Z,100021.63
2022-09-30T03:14:20.447Z,100018.16
2022-09-30T03:17:19.577Z,100008.50
2022-09-30T03:20:04.438Z,100013.47
2022-09-30T03:22:47.054Z,100008.38
2022-09-30T03:25:22.393Z,100011.50
2022-09-30T03:27:57.045Z,100017.41
2022-09-30T03:30:26.917Z,100016.22
2022-09-30T03:33:04.567Z,100019.78
2022-09-30T03:35:41.405Z,100023.63
2022-09-30T03:38:13.733Z,100033.50
2022-09-30T03:40:44.761Z,100026.59
2022-09-30T03:43:20.014Z,100033.59
2022-09-30T03:45:52.200Z,100028.16
2022-09-30T03:48:20.432Z,100032.59
2022-09-30T03:50:49.371Z,100033.44
2022-09-30T03:53:17.167Z,100028.47
2022-09-30T03:55:47.682Z,100033.44
2022-09-30T03:58:15.624Z,100027.69
2022-09-30T04:00:48.532Z,100036.72
2022-09-30T04:03:16.586Z,100036.31
2022-09-30T04:05:44.429Z,100041.41
2022-09-30T04:08:13.272Z,100048.22
2022-09-30T04:10:41.999Z,100052.44
2022-09-30T04:13:09.849Z,100054.97
2022-09-30T04:15:37.717Z,100059.09
2022-09-30T04:18:06.061Z,100049.00
2022-09-30T04:20:33.799Z,100048.03
2022-09-30T04:23:01.828Z,100055.72
2022-09-30T04:25:30.838Z,100055.53
2022-09-30T04:27:58.560Z,100059.84
2022-09-30T04:30:30.144Z,100061.81
2022-09-30T04:33:00.290Z,100057.00
2022-09-30T04:35:30.049Z,100058.63
2022-09-30T04:37:57.607Z,100063.81
2022-09-30T04:40:25.369Z,100059.69
2022-09-30T04:42:58.175Z,100059.25
2022-09-30T04:45:25.928Z,100058.47
2022-09-30T04:47:53.492Z,100070.22
2022-09-30T04:50:21.178Z,100065.78
2022-09-30T04:52:48.849Z,100074.13
2022-09-30T04:55:16.497Z,100075.81
2022-09-30T04:57:45.317Z,100072.19
2022-09-30T05:00:14.467Z,100083.72
2022-09-30T05:02:44.103Z,100087.78
2022-09-30T05:05:11.767Z,100094.09
2022-09-30T05:07:39.266Z,100093.97
2022-09-30T05:10:08.427Z,100099.66
2022-09-30T05:12:36.489Z,100085.38
2022-09-30T05:15:04.630Z,100099.53
2022-09-30T05:17:33.669Z,100100.81
2022-09-30T05:20:01.823Z,100100.47
2022-09-30T05:22:29.355Z,100114.00
2022-09-30T05:24:57.055Z,100107.16
2022-09-30T05:27:25.304Z,100113.53
2022-09-30T05:29:52.814Z,100115.50
2022-09-30T05:32:21.266Z,100122.97
2022-09-30T05:34:50.302Z,100126.00
2022-09-30T05:37:17.790Z,100128.22
2022-09-30T05:39:45.353Z,100136.19
2022-09-30T05:42:14.139Z,100138.41
2022-09-30T05:44:41.795Z,100143.13
2022-09-30T05:47:11.507Z,100145.63
2022-09-30T05:49:40.142Z,100163.91
2022-09-30T05:52:09.013Z,100158.16
2022-09-30T05:54:36.516Z,100175.75
2022-09-30T05:57:05.265Z,100180.88
2022-09-30T05:59:32.781Z,100180.19
2022-09-30T06:02:00.435Z,100175.78
2022-09-30T06:04:27.989Z,100176.94
2022-09-30T06:06:55.717Z,100177.31
2022-09-30T06:09:24.921Z,100184.28
2022-09-30T06:11:53.018Z,100191.94
2022-09-30T06:14:22.530Z,100196.00
2022-09-30T06:16:50.159Z,100195.06
2022-09-30T06:19:17.823Z,100185.53
2022-09-30T06:21:45.467Z,100182.53
2022-09-30T06:24:14.671Z,100194.94
2022-09-30T06:27:11.934Z,100198.44
2022-09-30T06:29:39.668Z,100194.84
2022-09-30T06:32:07.659Z,100191.69
2022-09-30T06:34:35.276Z,100186.75
2022-09-30T06:37:02.753Z,100191.00
2022-09-30T06:39:30.250Z,100199.09
2022-09-30T06:41:59.081Z,100200.09
2022-09-30T06:44:26.618Z,100196.78
2022-09-30T06:46:54.565Z,100196.94
2022-09-30T06:49:22.386Z,100199.13
2022-09-30T06:51:51.467Z,100193.50
2022-09-30T06:54:21.011Z,100205.38
2022-09-30T06:56:48.786Z,100210.31
2022-09-30T06:59:17.814Z,100206.53
2022-09-30T07:01:46.278Z,100208.31
2022-09-30T07:04:13.993Z,100214.59
2022-09-30T07:06:41.797Z,100205.66
2022-09-30T07:09:10.704Z,100210.25
2022-09-30T07:11:38.439Z,100210.25
2022-09-30T07:14:06.523Z,100206.41
2022-09-30T07:16:35.813Z,100216.66
2022-09-30T07:19:03.673Z,100213.25
2022-09-30T07:21:31.774Z,100215.56
2022-09-30T07:24:00.110Z,100220.50
2022-09-30T07:26:28.315Z,100210.56
2022-09-30T07:28:55.888Z,100217.50
2022-09-30T07:31:33.119Z,100229.31
2022-09-30T07:34:03.398Z,100218.50
2022-09-30T07:36:33.509Z,100234.16
2022-09-30T07:39:05.482Z,100236.16
2022-09-30T07:41:35.690Z,100233.94
2022-09-30T07:44:03.323Z,100239.34
2022-09-30T07:46:33.248Z,100247.72
2022-09-30T07:49:03.946Z,100246.72
2022-09-30T07:51:35.797Z,100247.13
2022-09-30T07:54:05.944Z,100246.19
2022-09-30T07:56:57.836Z,100252.78
2022-09-30T07:59:22.506Z,100254.78
2022-09-30T08:01:50.799Z,100265.50
2022-09-30T08:04:19.658Z,100266.84
2022-09-30T08:06:50.524Z,100272.25
2022-09-30T08:09:20.167Z,100272.56
2022-09-30T08:11:47.980Z,100272.31
2022-09-30T08:14:17.240Z,100284.31
2022-09-30T08:16:45.288Z,100277.16
2022-09-30T08:19:15.861Z,100281.75
2022-09-30T08:21:43.965Z,100274.28
2022-09-30T08:24:13.412Z,100279.19
2022-09-30T08:26:41.314Z,100279.72
2022-09-30T08:29:12.353Z,100282.69
2022-09-30T08:31:42.309Z,100277.09
2022-09-30T08:34:10.154Z,100284.88
2022-09-30T08:36:37.660Z,100294.38
2022-09-30T08:39:05.870Z,100289.81
2022-09-30T08:41:45.286Z,100304.75
2022-09-30T08:44:25.469Z,100296.44
2022-09-30T08:46:58.473Z,100290.09
2022-09-30T08:49:38.496Z,100288.34
2022-09-30T08:52:15.999Z,100290.03
2022-09-30T08:54:53.892Z,100291.31
2022-09-30T08:57:23.349Z,100291.94
2022-09-30T08:59:53.960Z,100284.78
2022-09-30T09:02:24.311Z,100281.09
2022-09-30T09:04:52.719Z,100280.16
2022-09-30T09:07:36.893Z,100283.56
2022-09-30T09:10:15.245Z,100277.88
2022-09-30T09:12:49.489Z,100286.38
2022-09-30T09:15:31.810Z,100292.03
2022-09-30T09:18:31.504Z,100285.78
2022-09-30T09:21:00.721Z,100279.88
2022-09-30T09:23:29.109Z,100285.19
2022-09-30T09:25:56.636Z,100288.72
2022-09-30T09:28:30.742Z,100292.31
2022-09-30T09:30:59.911Z,100284.44
2022-09-30T09:33:30.519Z,100296.41
2022-09-30T09:36:08.656Z,100296.03
2022-09-30T09:38:41.675Z,100287.06
2022-09-30T09:41:18.402Z,100281.72
2022-09-30T09:43:53.790Z,100291.22
2022-09-30T09:46:26.203Z,100290.91
2022-09-30T09:49:30.920Z,100289.28
2022-09-30T09:52:12.357Z,100291.56
2022-09-30T09:54:42.176Z,100292.25
2022-09-30T09:57:10.814Z,100294.97
2022-09-30T09:59:56.143Z,100295.19
2022-09-30T10:02:25.049Z,100294.78
2022-09-30T10:04:59.880Z,100298.94
2022-09-30T10:07:29.927Z,100294.78
2022-09-30T10:10:09.160Z,100304.50
2022-09-30T10:12:36.820Z,100301.44
2022-09-30T10:15:19.193Z,100290.78
2022-09-30T10:17:51.907Z,100292.41
2022-09-30T10:20:25.044Z,100289.06
2022-09-30T10:23:02.018Z,100293.41
2022-09-30T10:25:30.872Z,100286.22
2022-09-30T10:28:00.130Z,100285.41
2022-09-30T10:30:41.986Z,100281.94
2022-09-30T10:33:20.336Z,100288.09
2022-09-30T10:36:02.584Z,100285.84
2022-09-30T10:38:32.047Z,100290.38
2022-09-30T10:41:00.161Z,100285.06
2022-09-30T10:43:31.461Z,100277.03
2022-09-30T10:46:24.573Z,100278.28
2022-09-30T10:48:53.760Z,100276.19
2022-09-30T10:51:25.925Z,100274.38
2022-09-30T10:53:53.695Z,100267.78
2022-09-30T10:56:42.142Z,100273.72
2022-09-30T10:59:19.739Z,100277.44
2022-09-30T11:01:53.697Z,100277.00
2022-09-30T11:04:28.423Z,100266.13
2022-09-30T11:07:02.198Z,100269.41
2022-09-30T11:09:35.717Z,100256.56
2022-09-30T11:12:10.220Z,100268.03
2022-09-30T11:14:41.719Z,100251.94
2022-09-30T11:17:23.615Z,100253.97
2022-09-30T11:19:55.286Z,100250.47
2022-09-30T11:22:31.179Z,100249.47
2022-09-30T11:24:58.856Z,100249.03
2022-09-30T11:27:35.612Z,100250.38
2022-09-30T11:30:08.839Z,100249.94
2022-09-30T11:32:50.413Z,100244.06
2022-09-30T11:35:29.543Z,100251.66
2022-09-30T11:38:17.457Z,100248.56
2022-09-30T11:40:50.644Z,100252.00
2022-09-30T11:43:26.347Z,100249.13
2022-09-30T11:46:19.302Z,100252.00
2022-09-30T11:48:58.248Z,100259.91
2022-09-30T11:51:32.694Z,100258.41
2022-09-30T11:54:12.270Z,100262.16
2022-09-30T11:56:45.653Z,100251.44
2022-09-30T11:59:16.726Z,100264.75
2022-09-30T12:01:47.282Z,100255.47
2022-09-30T12:04:19.397Z,100262.19
2022-09-30T12:06:52.634Z,100258.34
2022-09-30T12:09:24.630Z,100254.81
2022-09-30T12:11:57.178Z,100255.41
2022-09-30T12:14:30.626Z,100259.72
2022-09-30T12:16:59.791Z,100253.78
2022-09-30T12:19:32.290Z,100252.72
2022-09-30T12:22:05.557Z,100255.69
2022-09-30T12:24:37.208Z,100254.06
2022-09-30T12:27:05.411Z,100251.63
2022-09-30T12:29:53.865Z,100251.53
2022-09-30T12:32:43.524Z,100248.88
2022-09-30T12:35:29.396Z,100252.72
2022-09-30T12:38:11.609Z,100254.25
2022-09-30T12:40:58.384Z,100265.81
2022-09-30T12:43:48.214Z,100259.16
2022-09-30T12:46:18.135Z,100265.22
2022-09-30T12:48:47.938Z,100261.16
2022-09-30T12:51:27.208Z,100262.34
2022-09-30T12:54:00.439Z,100273.38
2022-09-30T12:56:30.372Z,100267.16
2022-09-30T12:59:01.330Z,100271.16
2022-09-30T13:01:30.277Z,100265.63
2022-09-30T13:04:18.656Z,100272.91
2022-09-30T13:07:14.912Z,100265.88
2022-09-30T13:09:58.780Z,100260.84
2022-09-30T13:12:28.300Z,100253.44
2022-09-30T13:15:27.916Z,100260.94
2022-09-30T13:17:55.556Z,100249.44
2022-09-30T13:20:50.622Z,100254.59
2022-09-30T13:23:37.861Z,100249.59
2022-09-30T13:26:07.109Z,100247.22
2022-09-30T13:28:39.095Z,100252.00
2022-09-30T13:31:15.553Z,100253.41
2022-09-30T13:33:48.299Z,100253.13
2022-09-30T13:36:20.321Z,100257.97
2022-09-30T13:39:07.690Z,100263.28
2022-09-30T13:41:37.496Z,100273.75
2022-09-30T13:44:10.082Z,100266.31
2022-09-30T13:46:43.248Z,100268.09
2022-09-30T13:49:14.947Z,100269.00
2022-09-30T13:51:42.657Z,100265.47
2022-09-30T13:54:15.547Z,100255.84
2022-09-30T13:56:44.079Z,100258.53
2022-09-30T13:59:21.764Z,100260.91
2022-09-30T14:02:04.920Z,100249.09
2022-09-30T14:04:47.319Z,100247.09
2022-09-30T14:07:18.902Z,100244.66
2022-09-30T14:09:58.996Z,100244.41
2022-09-30T14:12:37.309Z,100237.28
2022-09-30T14:15:25.716Z,100238.59
2022-09-30T14:18:07.480Z,100247.94
2022-09-30T14:20:43.859Z,100251.22
2022-09-30T14:23:15.458Z,100249.50
2022-09-30T14:25:52.305Z,100249.25
2022-09-30T14:28:24.669Z,100249.00
2022-09-30T14:31:10.077Z,100246.44
2022-09-30T14:33:39.518Z,100245.50
2022-09-30T14:36:13.781Z,100243.94
2022-09-30T14:38:44.471Z,100241.47
2022-09-30T14:41:18.314Z,100245.09
2022-09-30T14:43:47.125Z,100236.03
2022-09-30T14:46:24.952Z,100238.97
2022-09-30T14:48:52.980Z,100238.81
2022-09-30T14:51:23.683Z,100228.69
2022-09-30T14:53:56.075Z,100230.75
2022-09-30T14:56:30.571Z,100233.63
2022-09-30T14:58:59.696Z,100233.63
2022-09-30T15:01:30.786Z,100236.31
2022-09-30T15:04:00.833Z,100231.56
2022-09-30T15:06:30.498Z,100236.66
2022-09-30T15:09:03.271Z,100231.28
2022-09-30T15:11:37.203Z,100225.69
2022-09-30T15:14:09.915Z,100231.72
2022-09-30T15:16:46.947Z,100221.91
2022-09-30T15:19:19.314Z,100222.19
2022-09-30T15:21:49.030Z,100219.13
2022-09-30T15:24:18.232Z,100222.56
2022-09-30T15:26:49.096Z,100220.31
2022-09-30T15:29:17.666Z,100219.19
2022-09-30T15:31:47.143Z,100212.56
2022-09-30T15:34:20.469Z,100209.66
2022-09-30T15:37:04.481Z,100208.63
2022-09-30T15:39:47.556Z,100199.81
2022-09-30T15:42:30.234Z,100202.81
2022-09-30T15:44:59.533Z,100204.44
2022-09-30T15:47:27.649Z,100211.75
2022-09-30T15:49:55.428Z,100203.97
2022-09-30T15:52:33.405Z,100206.97
2022-09-30T15:55:01.084Z,100218.34
2022-09-30T15:57:47.757Z,100216.13
2022-09-30T16:00:38.311Z,100216.16
2022-09-30T16:03:32.973Z,100214.53
2022-09-30T16:06:08.682Z,100208.06
2022-09-30T16:08:42.881Z,100202.19
2022-09-30T16:11:10.645Z,100200.88
2022-09-30T16:13:43.569Z,100202.81
2022-09-30T16:16:19.621Z,100205.25
2022-09-30T16:18:47.402Z,100202.16
2022-09-30T16:21:30.440Z,100207.06
2022-09-30T16:23:58.072Z,100205.44
2022-09-30T16:26:30.761Z,100204.66
2022-09-30T16:29:05.838Z,100208.31
2022-09-30T16:31:36.074Z,100211.22
2022-09-30T16:34:03.768Z,100218.25
2022-09-30T16:36:31.787Z,100229.38
2022-09-30T16:38:59.614Z,100227.41
2022-09-30T16:41:27.225Z,100224.97
2022-09-30T16:43:54.782Z,100216.34
2022-09-30T16:46:23.797Z,100211.19
2022-09-30T16:48:51.347Z,100215.63
2022-09-30T16:51:19.079Z,100231.91
2022-09-30T16:53:47.841Z,100231.72
2022-09-30T16:56:17.118Z,100222.72
2022-09-30T16:58:45.149Z,100222.34
2022-09-30T17:01:18.315Z,100221.56
2022-09-30T17:03:47.485Z,100226.56
2022-09-30T17:06:15.171Z,100225.56
2022-09-30T17:08:42.745Z,100224.16
2022-09-30T17:11:10.999Z,100232.59
2022-09-30T17:13:38.654Z,100232.81
2022-09-30T17:16:06.668Z,100241.03
2022-09-30T17:18:34.412Z,100241.88
2022-09-30T17:21:03.433Z,100237.78
2022-09-30T17:23:31.012Z,100233.06
2022-09-30T17:25:58.643Z,100238.63
2022-09-30T17:28:26.493Z,100245.19
2022-09-30T17:30:54.747Z,100241.09
2022-09-30T17:33:22.529Z,100236.75
2022-09-30T17:36:00.160Z,100243.13
2022-09-30T17:38:29.868Z,100237.97
2022-09-30T17:41:15.150Z,100245.16
2022-09-30T17:43:42.789Z,100250.91
2022-09-30T17:46:10.415Z,100252.72
2022-09-30T17:48:39.345Z,100259.47
2022-09-30T17:51:09.522Z,100256.59
2022-09-30T17:53:39.746Z,100255.47
2022-09-30T17:56:10.165Z,100268.72
2022-09-30T17:58:38.128Z,100270.06
2022-09-30T18:01:07.793Z,100277.28
2022-09-30T18:03:35.716Z,100262.66
2022-09-30T18:06:03.484Z,100275.00
2022-09-30T18:08:31.125Z,100271.31
2022-09-30T18:11:00.015Z,100282.03
2022-09-30T18:13:28.518Z,100280.59
2022-09-30T18:15:59.568Z,100280.97
2022-09-30T18:18:27.263Z,100273.31
2022-09-30T18:20:54.825Z,100273.50
2022-09-30T18:23:22.456Z,100281.50
2022-09-30T18:25:54.309Z,100281.88
2022-09-30T18:28:23.426Z,100278.16
2022-09-30T18:30:51.055Z,100277.13
2022-09-30T18:33:21.340Z,100272.88
2022-09-30T18:35:51.437Z,100274.47
2022-09-30T18:38:19.556Z,100283.63
2022-09-30T18:40:47.143Z,100279.06
2022-09-30T18:43:15.169Z,100267.81
2022-09-30T18:45:44.257Z,100267.81
2022-09-30T18:48:11.982Z,100266.00
2022-09-30T18:50:39.638Z,100261.91
2022-09-30T18:53:09.934Z,100253.84
2022-09-30T18:55:38.254Z,100248.88
2022-09-30T18:58:06.343Z,100260.22
2022-09-30T19:00:34.094Z,100257.75
2022-09-30T19:03:03.111Z,100269.22
2022-09-30T19:05:30.790Z,100273.53
2022-09-30T19:07:59.304Z,100263.31
2022-09-30T19:10:26.850Z,100271.88
2022-09-30T19:12:54.452Z,100262.00
2022-09-30T19:15:23.471Z,100263.81
2022-09-30T19:17:53.648Z,100275.50
2022-09-30T19:20:22.981Z,100276.44
2022-09-30T19:22:51.881Z,100272.56
2022-09-30T19:25:19.614Z,100276.44
2022-09-30T19:27:49.422Z,100276.84
2022-09-30T19:30:17.065Z,100275.41
2022-09-30T19:32:44.688Z,100284.56
2022-09-30T19:35:13.569Z,100273.53
2022-09-30T19:37:55.623Z,100277.97
2022-09-30T19:40:25.290Z,100276.91
2022-09-30T19:42:52.888Z,100283.97
2022-09-30T19:45:25.921Z,100287.03
2022-09-30T19:47:53.952Z,100290.44
2022-09-30T19:50:21.550Z,100289.22
2022-09-30T19:52:56.766Z,100290.53
2022-09-30T19:55:25.580Z,100286.59
2022-09-30T19:57:53.239Z,100291.34
2022-09-30T20:00:20.820Z,100296.41
2022-09-30T20:02:48.527Z,100297.25
2022-09-30T20:05:18.261Z,100301.72
2022-09-30T20:07:45.808Z,100305.59
2022-09-30T20:10:14.819Z,100307.41
2022-09-30T20:12:43.506Z,100304.09
2022-09-30T20:15:29.333Z,100307.78
2022-09-30T20:17:56.996Z,100304.03
2022-09-30T20:20:37.080Z,100302.84
2022-09-30T20:23:04.871Z,100313.34
2022-09-30T20:25:35.125Z,100311.81
2022-09-30T20:28:03.979Z,100320.78
2022-09-30T20:30:32.007Z,100317.41
2022-09-30T20:32:59.814Z,100318.88
2022-09-30T20:35:27.459Z,100305.41
2022-09-30T20:37:55.072Z,100297.28
2022-09-30T20:40:23.177Z,100296.13
2022-09-30T20:42:52.725Z,100296.75
2022-09-30T20:45:20.348Z,100303.38
2022-09-30T20:47:47.983Z,100314.72
2022-09-30T20:50:34.742Z,100317.31
2022-09-30T20:53:03.841Z,100321.88
2022-09-30T20:55:31.463Z,100322.25
2022-09-30T20:58:00.426Z,100322.72
2022-09-30T21:00:28.224Z,100335.75
2022-09-30T21:02:57.182Z,100324.63
2022-09-30T21:05:24.822Z,100339.13
2022-09-30T21:07:53.158Z,100335.63
2022-09-30T21:10:21.307Z,100335.44
2022-09-30T21:12:49.847Z,100325.91
2022-09-30T21:15:19.089Z,100330.88
2022-09-30T21:17:46.799Z,100327.41
2022-09-30T21:20:14.569Z,100318.41
2022-09-30T21:22:42.870Z,100318.03
2022-09-30T21:25:13.009Z,100318.69
2022-09-30T21:27:41.056Z,100315.22
2022-09-30T21:30:10.855Z,100317.22
2022-09-30T21:32:42.943Z,100316.59
2022-09-30T21:35:10.801Z,100304.38
2022-09-30T21:37:38.713Z,100302.19
2022-09-30T21:40:07.112Z,100300.81
2022-09-30T21:42:53.747Z,100292.28
2022-09-30T21:45:34.569Z,100288.00
2022-09-30T21:48:34.503Z,100295.25
2022-09-30T21:51:07.805Z,100294.31
2022-09-30T21:53:46.950Z,100291.31
2022-09-30T21:56:14.720Z,100277.84
2022-09-30T21:58:42.358Z,100294.75
2022-09-30T22:01:11.166Z,100289.63
2022-09-30T22:03:40.173Z,100282.94
2022-09-30T22:06:09.156Z,100288.06
2022-09-30T22:08:39.945Z,100287.25
2022-09-30T22:11:13.474Z,100278.63
2022-09-30T22:13:43.677Z,100287.47
2022-09-30T22:16:11.527Z,100283.38
2022-09-30T22:18:40.513Z,100281.56
2022-09-30T22:21:10.638Z,100286.56
2022-09-30T22:23:38.427Z,100277.97
2022-09-30T22:26:11.101Z,100276.69
2022-09-30T22:28:41.616Z,100277.50
2022-09-30T22:31:13.777Z,100267.69
2022-09-30T22:34:00.632Z,100278.09
2022-09-30T22:36:47.993Z,100278.72
2022-09-30T22:39:15.610Z,100278.47
2022-09-30T22:41:43.387Z,100283.31
2022-09-30T22:44:11.054Z,100276.72
2022-09-30T22:46:39.389Z,100271.22
2022-09-30T22:49:08.336Z,100269.47
2022-09-30T22:51:36.362Z,100267.56
2022-09-30T22:54:20.206Z,100262.75
2022-09-30T22:56:50.352Z,100265.59
2022-09-30T22:59:18.690Z,100259.66
2022-09-30T23:01:46.763Z,100266.81
2022-09-30T23:04:26.545Z,100260.19
2022-09-30T23:06:55.699Z,100273.56
2022-09-30T23:09:23.615Z,100266.50
2022-09-30T23:11:53.567Z,100273.03
2022-09-30T23:14:21.446Z,100268.94
2022-09-30T23:16:49.500Z,100274.06
2022-09-30T23:19:18.473Z,100275.84
2022-09-30T23:21:45.994Z,100270.28
2022-09-30T23:24:13.515Z,100276.19
2022-09-30T23:26:41.201Z,100280.13
2022-09-30T23:29:12.084Z,100283.38
2022-09-30T23:31:39.907Z,100282.38
2022-09-30T23:34:07.657Z,100280.31
2022-09-30T23:36:37.764Z,100281.91
2022-09-30T23:39:08.130Z,100270.41
2022-09-30T23:41:36.028Z,100267.75
2022-09-30T23:44:04.388Z,100264.34
2022-09-30T23:46:32.003Z,100250.91
2022-09-30T23:48:59.781Z,100256.03
2022-09-30T23:51:27.290Z,100261.16
2022-09-30T23:53:56.173Z,100265.22
2022-09-30T23:56:23.942Z,100258.28
2022-09-30T23:58:51.467Z,100255.94
